sensor_id;sensor_type;location;lat;lon;timestamp;P1;durP1;ratioP1;P2;durP2;ratioP2
8909;SDS011;4490;49.072;8.804;2022-07-29T00:01:33;6.45;;;3.88;;
8909;SDS011;4490;49.072;8.804;2022-07-29T00:03:58;4.43;;;4.00;;
8909;SDS011;4490;49.072;8.804;2022-07-29T00:06:24;6.85;;;4.55;;
8909;SDS011;4490;49.072;8.804;2022-07-29T00:08:49;4.72;;;4.20;;
8909;SDS011;4490;49.072;8.804;2022-07-29T00:11:15;5.43;;;4.22;;
8909;SDS011;4490;49.072;8.804;2022-07-29T00:13:41;4.57;;;4.18;;
8909;SDS011;4490;49.072;8.804;2022-07-29T00:16:06;6.05;;;4.25;;
8909;SDS011;4490;49.072;8.804;2022-07-29T00:18:32;6.40;;;4.15;;
8909;SDS011;4490;49.072;8.804;2022-07-29T00:20:58;5.20;;;4.20;;
8909;SDS011;4490;49.072;8.804;2022-07-29T00:23:24;4.68;;;4.18;;
8909;SDS011;4490;49.072;8.804;2022-07-29T00:25:49;4.80;;;4.38;;
8909;SDS011;4490;49.072;8.804;2022-07-29T00:28:15;4.22;;;3.90;;
8909;SDS011;4490;49.072;8.804;2022-07-29T00:30:41;7.68;;;4.30;;
8909;SDS011;4490;49.072;8.804;2022-07-29T00:33:08;5.32;;;4.38;;
8909;SDS011;4490;49.072;8.804;2022-07-29T00:35:34;4.70;;;4.30;;
8909;SDS011;4490;49.072;8.804;2022-07-29T00:38:08;5.35;;;4.68;;
8909;SDS011;4490;49.072;8.804;2022-07-29T00:40:35;4.65;;;4.25;;
8909;SDS011;4490;49.072;8.804;2022-07-29T00:43:00;5.18;;;4.55;;
8909;SDS011;4490;49.072;8.804;2022-07-29T00:45:26;5.10;;;4.60;;
8909;SDS011;4490;49.072;8.804;2022-07-29T00:47:52;5.25;;;4.53;;
8909;SDS011;4490;49.072;8.804;2022-07-29T00:50:18;5.88;;;4.47;;
8909;SDS011;4490;49.072;8.804;2022-07-29T00:52:44;4.82;;;4.30;;
8909;SDS011;4490;49.072;8.804;2022-07-29T00:55:11;5.05;;;4.47;;
8909;SDS011;4490;49.072;8.804;2022-07-29T00:57:37;5.30;;;4.25;;
8909;SDS011;4490;49.072;8.804;2022-07-29T01:00:06;5.03;;;4.55;;
8909;SDS011;4490;49.072;8.804;2022-07-29T01:02:34;4.88;;;4.47;;
8909;SDS011;4490;49.072;8.804;2022-07-29T01:05:02;5.45;;;4.65;;
8909;SDS011;4490;49.072;8.804;2022-07-29T01:07:29;4.95;;;4.45;;
8909;SDS011;4490;49.072;8.804;2022-07-29T01:09:57;5.70;;;4.35;;
8909;SDS011;4490;49.072;8.804;2022-07-29T01:12:26;5.93;;;4.90;;
8909;SDS011;4490;49.072;8.804;2022-07-29T01:14:54;6.22;;;4.35;;
8909;SDS011;4490;49.072;8.804;2022-07-29T01:17:23;5.10;;;4.60;;
8909;SDS011;4490;49.072;8.804;2022-07-29T01:25:50;5.00;;;4.50;;
8909;SDS011;4490;49.072;8.804;2022-07-29T01:31:24;5.30;;;4.40;;
8909;SDS011;4490;49.072;8.804;2022-07-29T01:37:10;4.90;;;4.40;;
8909;SDS011;4490;49.072;8.804;2022-07-29T01:39:49;5.35;;;4.85;;
8909;SDS011;4490;49.072;8.804;2022-07-29T01:42:23;5.40;;;4.90;;
8909;SDS011;4490;49.072;8.804;2022-07-29T01:47:28;5.07;;;4.60;;
8909;SDS011;4490;49.072;8.804;2022-07-29T01:50:02;4.78;;;4.35;;
8909;SDS011;4490;49.072;8.804;2022-07-29T01:52:34;5.30;;;4.75;;
8909;SDS011;4490;49.072;8.804;2022-07-29T01:55:07;4.87;;;4.40;;
8909;SDS011;4490;49.072;8.804;2022-07-29T01:57:38;6.07;;;4.53;;
8909;SDS011;4490;49.072;8.804;2022-07-29T02:00:05;5.20;;;4.70;;
8909;SDS011;4490;49.072;8.804;2022-07-29T02:02:32;5.07;;;4.57;;
8909;SDS011;4490;49.072;8.804;2022-07-29T02:05:00;6.68;;;4.95;;
8909;SDS011;4490;49.072;8.804;2022-07-29T02:07:29;6.72;;;5.25;;
8909;SDS011;4490;49.072;8.804;2022-07-29T02:09:57;6.47;;;5.28;;
8909;SDS011;4490;49.072;8.804;2022-07-29T02:12:24;5.78;;;5.10;;
8909;SDS011;4490;49.072;8.804;2022-07-29T02:14:52;8.30;;;5.37;;
8909;SDS011;4490;49.072;8.804;2022-07-29T02:17:23;6.25;;;5.18;;
8909;SDS011;4490;49.072;8.804;2022-07-29T02:19:55;6.13;;;5.57;;
8909;SDS011;4490;49.072;8.804;2022-07-29T02:22:24;5.82;;;5.15;;
8909;SDS011;4490;49.072;8.804;2022-07-29T02:24:51;6.10;;;5.50;;
8909;SDS011;4490;49.072;8.804;2022-07-29T02:27:18;7.57;;;5.50;;
8909;SDS011;4490;49.072;8.804;2022-07-29T02:29:47;6.43;;;5.83;;
8909;SDS011;4490;49.072;8.804;2022-07-29T02:32:15;6.27;;;5.67;;
8909;SDS011;4490;49.072;8.804;2022-07-29T02:34:42;6.50;;;5.87;;
8909;SDS011;4490;49.072;8.804;2022-07-29T02:37:10;6.77;;;5.80;;
8909;SDS011;4490;49.072;8.804;2022-07-29T02:39:37;7.23;;;5.97;;
8909;SDS011;4490;49.072;8.804;2022-07-29T02:42:07;6.40;;;5.80;;
8909;SDS011;4490;49.072;8.804;2022-07-29T02:44:36;6.77;;;6.17;;
8909;SDS011;4490;49.072;8.804;2022-07-29T02:47:25;6.33;;;5.53;;
8909;SDS011;4490;49.072;8.804;2022-07-29T02:50:02;7.73;;;6.93;;
8909;SDS011;4490;49.072;8.804;2022-07-29T03:00:47;7.30;;;6.03;;
8909;SDS011;4490;49.072;8.804;2022-07-29T03:03:16;7.33;;;6.10;;
8909;SDS011;4490;49.072;8.804;2022-07-29T03:05:43;6.60;;;6.00;;
8909;SDS011;4490;49.072;8.804;2022-07-29T03:08:11;6.80;;;6.10;;
8909;SDS011;4490;49.072;8.804;2022-07-29T03:10:43;7.77;;;6.30;;
8909;SDS011;4490;49.072;8.804;2022-07-29T03:13:10;6.87;;;6.00;;
8909;SDS011;4490;49.072;8.804;2022-07-29T03:15:38;6.73;;;5.87;;
8909;SDS011;4490;49.072;8.804;2022-07-29T03:18:04;6.70;;;6.00;;
8909;SDS011;4490;49.072;8.804;2022-07-29T03:20:31;6.30;;;5.63;;
8909;SDS011;4490;49.072;8.804;2022-07-29T03:22:56;7.30;;;5.80;;
8909;SDS011;4490;49.072;8.804;2022-07-29T03:25:22;6.57;;;5.97;;
8909;SDS011;4490;49.072;8.804;2022-07-29T03:27:48;6.97;;;5.90;;
8909;SDS011;4490;49.072;8.804;2022-07-29T03:30:13;6.53;;;6.00;;
8909;SDS011;4490;49.072;8.804;2022-07-29T03:32:40;6.60;;;5.83;;
8909;SDS011;4490;49.072;8.804;2022-07-29T03:35:06;9.33;;;6.03;;
8909;SDS011;4490;49.072;8.804;2022-07-29T03:37:33;7.13;;;6.30;;
8909;SDS011;4490;49.072;8.804;2022-07-29T03:40:03;7.13;;;6.43;;
8909;SDS011;4490;49.072;8.804;2022-07-29T03:42:31;6.80;;;6.20;;
8909;SDS011;4490;49.072;8.804;2022-07-29T03:44:59;7.23;;;6.53;;
8909;SDS011;4490;49.072;8.804;2022-07-29T03:47:28;7.50;;;6.77;;
8909;SDS011;4490;49.072;8.804;2022-07-29T03:49:57;7.53;;;6.63;;
8909;SDS011;4490;49.072;8.804;2022-07-29T03:52:25;7.23;;;6.47;;
8909;SDS011;4490;49.072;8.804;2022-07-29T03:54:51;8.33;;;6.40;;
8909;SDS011;4490;49.072;8.804;2022-07-29T03:57:18;6.80;;;5.93;;
8909;SDS011;4490;49.072;8.804;2022-07-29T03:59:48;7.20;;;6.50;;
8909;SDS011;4490;49.072;8.804;2022-07-29T04:02:15;7.00;;;6.20;;
8909;SDS011;4490;49.072;8.804;2022-07-29T04:04:41;8.27;;;7.27;;
8909;SDS011;4490;49.072;8.804;2022-07-29T04:07:09;7.20;;;6.20;;
8909;SDS011;4490;49.072;8.804;2022-07-29T04:09:40;7.57;;;6.13;;
8909;SDS011;4490;49.072;8.804;2022-07-29T04:12:06;7.83;;;6.57;;
8909;SDS011;4490;49.072;8.804;2022-07-29T04:14:32;6.70;;;6.00;;
8909;SDS011;4490;49.072;8.804;2022-07-29T04:16:59;7.90;;;6.20;;
8909;SDS011;4490;49.072;8.804;2022-07-29T04:19:25;7.07;;;6.37;;
8909;SDS011;4490;49.072;8.804;2022-07-29T04:21:51;7.10;;;6.40;;
8909;SDS011;4490;49.072;8.804;2022-07-29T04:24:17;7.70;;;5.87;;
8909;SDS011;4490;49.072;8.804;2022-07-29T04:26:43;7.93;;;6.40;;
8909;SDS011;4490;49.072;8.804;2022-07-29T04:29:09;6.83;;;6.23;;
8909;SDS011;4490;49.072;8.804;2022-07-29T04:31:37;6.50;;;5.93;;
8909;SDS011;4490;49.072;8.804;2022-07-29T04:34:03;8.10;;;5.80;;
8909;SDS011;4490;49.072;8.804;2022-07-29T04:36:28;6.93;;;5.80;;
8909;SDS011;4490;49.072;8.804;2022-07-29T04:38:54;7.47;;;5.60;;
8909;SDS011;4490;49.072;8.804;2022-07-29T04:41:20;7.30;;;5.87;;
8909;SDS011;4490;49.072;8.804;2022-07-29T04:43:45;6.63;;;5.93;;
8909;SDS011;4490;49.072;8.804;2022-07-29T04:46:11;5.93;;;5.33;;
8909;SDS011;4490;49.072;8.804;2022-07-29T04:48:36;6.37;;;5.63;;
8909;SDS011;4490;49.072;8.804;2022-07-29T04:51:02;6.47;;;5.80;;
8909;SDS011;4490;49.072;8.804;2022-07-29T04:53:28;7.83;;;5.67;;
8909;SDS011;4490;49.072;8.804;2022-07-29T04:55:53;6.67;;;5.93;;
8909;SDS011;4490;49.072;8.804;2022-07-29T04:58:19;6.23;;;5.33;;
8909;SDS011;4490;49.072;8.804;2022-07-29T05:00:45;6.40;;;5.80;;
8909;SDS011;4490;49.072;8.804;2022-07-29T05:03:10;5.97;;;5.40;;
8909;SDS011;4490;49.072;8.804;2022-07-29T05:05:36;5.80;;;5.17;;
8909;SDS011;4490;49.072;8.804;2022-07-29T05:08:01;6.03;;;5.53;;
8909;SDS011;4490;49.072;8.804;2022-07-29T05:10:27;6.87;;;5.20;;
8909;SDS011;4490;49.072;8.804;2022-07-29T05:12:53;5.33;;;4.83;;
8909;SDS011;4490;49.072;8.804;2022-07-29T05:15:19;6.07;;;5.43;;
8909;SDS011;4490;49.072;8.804;2022-07-29T05:17:45;6.00;;;5.50;;
8909;SDS011;4490;49.072;8.804;2022-07-29T05:20:10;6.27;;;5.67;;
8909;SDS011;4490;49.072;8.804;2022-07-29T05:22:36;6.57;;;5.50;;
8909;SDS011;4490;49.072;8.804;2022-07-29T05:25:02;5.57;;;5.07;;
8909;SDS011;4490;49.072;8.804;2022-07-29T05:27:28;6.00;;;5.30;;
8909;SDS011;4490;49.072;8.804;2022-07-29T05:29:54;7.60;;;5.90;;
8909;SDS011;4490;49.072;8.804;2022-07-29T05:32:19;6.70;;;5.27;;
8909;SDS011;4490;49.072;8.804;2022-07-29T05:34:45;6.20;;;5.63;;
8909;SDS011;4490;49.072;8.804;2022-07-29T05:37:11;6.10;;;5.60;;
8909;SDS011;4490;49.072;8.804;2022-07-29T05:39:38;6.70;;;5.33;;
8909;SDS011;4490;49.072;8.804;2022-07-29T05:42:07;5.60;;;5.10;;
8909;SDS011;4490;49.072;8.804;2022-07-29T05:44:36;6.57;;;5.27;;
8909;SDS011;4490;49.072;8.804;2022-07-29T05:47:02;5.70;;;5.20;;
8909;SDS011;4490;49.072;8.804;2022-07-29T05:49:28;6.17;;;5.10;;
8909;SDS011;4490;49.072;8.804;2022-07-29T05:51:54;5.82;;;5.28;;
8909;SDS011;4490;49.072;8.804;2022-07-29T05:54:19;5.53;;;5.03;;
8909;SDS011;4490;49.072;8.804;2022-07-29T05:56:45;6.05;;;5.45;;
8909;SDS011;4490;49.072;8.804;2022-07-29T05:59:11;7.22;;;6.03;;
8909;SDS011;4490;49.072;8.804;2022-07-29T06:01:37;6.53;;;5.85;;
8909;SDS011;4490;49.072;8.804;2022-07-29T06:04:04;9.40;;;5.93;;
8909;SDS011;4490;49.072;8.804;2022-07-29T06:06:33;5.90;;;5.22;;
8909;SDS011;4490;49.072;8.804;2022-07-29T06:08:59;5.90;;;4.53;;
8909;SDS011;4490;49.072;8.804;2022-07-29T06:11:25;5.05;;;4.53;;
8909;SDS011;4490;49.072;8.804;2022-07-29T06:13:51;5.60;;;4.85;;
8909;SDS011;4490;49.072;8.804;2022-07-29T06:16:16;5.13;;;4.63;;
8909;SDS011;4490;49.072;8.804;2022-07-29T06:18:42;5.97;;;4.47;;
8909;SDS011;4490;49.072;8.804;2022-07-29T06:21:08;4.90;;;4.50;;
8909;SDS011;4490;49.072;8.804;2022-07-29T06:23:37;6.38;;;5.57;;
8909;SDS011;4490;49.072;8.804;2022-07-29T06:26:03;5.18;;;4.68;;
8909;SDS011;4490;49.072;8.804;2022-07-29T06:28:29;4.93;;;4.32;;
8909;SDS011;4490;49.072;8.804;2022-07-29T06:30:55;6.50;;;4.10;;
8909;SDS011;4490;49.072;8.804;2022-07-29T06:33:21;5.55;;;4.50;;
8909;SDS011;4490;49.072;8.804;2022-07-29T06:35:46;6.07;;;5.00;;
8909;SDS011;4490;49.072;8.804;2022-07-29T06:38:13;6.07;;;4.75;;
8909;SDS011;4490;49.072;8.804;2022-07-29T06:40:42;6.60;;;4.88;;
8909;SDS011;4490;49.072;8.804;2022-07-29T06:46:03;7.30;;;4.70;;
8909;SDS011;4490;49.072;8.804;2022-07-29T06:48:31;7.50;;;4.95;;
8909;SDS011;4490;49.072;8.804;2022-07-29T06:50:57;6.78;;;5.50;;
8909;SDS011;4490;49.072;8.804;2022-07-29T06:53:23;6.72;;;4.63;;
8909;SDS011;4490;49.072;8.804;2022-07-29T06:55:49;8.70;;;5.20;;
8909;SDS011;4490;49.072;8.804;2022-07-29T06:58:15;5.88;;;4.88;;
8909;SDS011;4490;49.072;8.804;2022-07-29T07:00:43;5.55;;;5.05;;
8909;SDS011;4490;49.072;8.804;2022-07-29T07:03:09;5.05;;;4.50;;
8909;SDS011;4490;49.072;8.804;2022-07-29T07:05:35;7.03;;;4.63;;
8909;SDS011;4490;49.072;8.804;2022-07-29T07:08:01;5.78;;;4.85;;
8909;SDS011;4490;49.072;8.804;2022-07-29T07:10:27;6.85;;;4.57;;
8909;SDS011;4490;49.072;8.804;2022-07-29T07:12:54;5.47;;;4.60;;
8909;SDS011;4490;49.072;8.804;2022-07-29T07:15:19;5.10;;;4.53;;
8909;SDS011;4490;49.072;8.804;2022-07-29T07:17:48;4.95;;;4.55;;
8909;SDS011;4490;49.072;8.804;2022-07-29T07:20:14;6.20;;;4.75;;
8909;SDS011;4490;49.072;8.804;2022-07-29T07:22:41;5.18;;;4.60;;
8909;SDS011;4490;49.072;8.804;2022-07-29T07:25:06;5.00;;;4.40;;
8909;SDS011;4490;49.072;8.804;2022-07-29T07:27:32;5.35;;;4.60;;
8909;SDS011;4490;49.072;8.804;2022-07-29T07:29:58;4.90;;;4.50;;
8909;SDS011;4490;49.072;8.804;2022-07-29T07:32:23;4.93;;;4.40;;
8909;SDS011;4490;49.072;8.804;2022-07-29T07:34:49;6.38;;;4.47;;
8909;SDS011;4490;49.072;8.804;2022-07-29T07:37:14;7.00;;;4.90;;
8909;SDS011;4490;49.072;8.804;2022-07-29T07:39:40;7.18;;;4.32;;
8909;SDS011;4490;49.072;8.804;2022-07-29T07:42:06;5.88;;;4.55;;
8909;SDS011;4490;49.072;8.804;2022-07-29T07:44:32;7.72;;;4.78;;
8909;SDS011;4490;49.072;8.804;2022-07-29T07:46:57;6.28;;;4.80;;
8909;SDS011;4490;49.072;8.804;2022-07-29T07:49:23;4.70;;;4.25;;
8909;SDS011;4490;49.072;8.804;2022-07-29T07:51:49;5.40;;;4.55;;
8909;SDS011;4490;49.072;8.804;2022-07-29T07:54:14;4.68;;;3.90;;
8909;SDS011;4490;49.072;8.804;2022-07-29T07:56:40;5.53;;;4.20;;
8909;SDS011;4490;49.072;8.804;2022-07-29T07:59:05;7.70;;;4.90;;
8909;SDS011;4490;49.072;8.804;2022-07-29T08:01:31;4.80;;;3.80;;
8909;SDS011;4490;49.072;8.804;2022-07-29T08:03:57;7.30;;;4.00;;
8909;SDS011;4490;49.072;8.804;2022-07-29T08:06:22;4.25;;;3.70;;
8909;SDS011;4490;49.072;8.804;2022-07-29T08:08:50;7.60;;;4.55;;
8909;SDS011;4490;49.072;8.804;2022-07-29T08:11:15;4.70;;;3.80;;
8909;SDS011;4490;49.072;8.804;2022-07-29T08:13:42;6.07;;;4.00;;
8909;SDS011;4490;49.072;8.804;2022-07-29T08:16:08;5.40;;;4.22;;
8909;SDS011;4490;49.072;8.804;2022-07-29T08:18:37;4.53;;;4.15;;
8909;SDS011;4490;49.072;8.804;2022-07-29T08:21:04;4.75;;;4.35;;
8909;SDS011;4490;49.072;8.804;2022-07-29T08:23:31;7.10;;;4.00;;
8909;SDS011;4490;49.072;8.804;2022-07-29T08:26:06;4.72;;;3.83;;
8909;SDS011;4490;49.072;8.804;2022-07-29T08:28:36;7.07;;;4.25;;
8909;SDS011;4490;49.072;8.804;2022-07-29T08:31:03;8.30;;;4.20;;
8909;SDS011;4490;49.072;8.804;2022-07-29T08:33:28;4.90;;;3.80;;
8909;SDS011;4490;49.072;8.804;2022-07-29T08:35:54;9.63;;;4.13;;
8909;SDS011;4490;49.072;8.804;2022-07-29T08:38:19;6.65;;;4.43;;
8909;SDS011;4490;49.072;8.804;2022-07-29T08:40:46;4.82;;;4.20;;
8909;SDS011;4490;49.072;8.804;2022-07-29T08:43:12;4.65;;;3.83;;
8909;SDS011;4490;49.072;8.804;2022-07-29T08:45:42;4.82;;;4.10;;
8909;SDS011;4490;49.072;8.804;2022-07-29T08:48:12;4.85;;;4.43;;
8909;SDS011;4490;49.072;8.804;2022-07-29T08:50:39;4.70;;;4.15;;
8909;SDS011;4490;49.072;8.804;2022-07-29T08:53:10;5.35;;;4.30;;
8909;SDS011;4490;49.072;8.804;2022-07-29T08:55:42;5.82;;;3.60;;
8909;SDS011;4490;49.072;8.804;2022-07-29T08:58:08;4.20;;;3.80;;
8909;SDS011;4490;49.072;8.804;2022-07-29T09:00:35;5.13;;;3.70;;
8909;SDS011;4490;49.072;8.804;2022-07-29T09:03:02;5.55;;;3.70;;
8909;SDS011;4490;49.072;8.804;2022-07-29T09:05:29;4.88;;;4.10;;
8909;SDS011;4490;49.072;8.804;2022-07-29T09:07:57;5.35;;;4.40;;
8909;SDS011;4490;49.072;8.804;2022-07-29T09:10:24;6.25;;;4.10;;
8909;SDS011;4490;49.072;8.804;2022-07-29T09:12:49;7.85;;;4.15;;
8909;SDS011;4490;49.072;8.804;2022-07-29T09:15:17;5.00;;;4.22;;
8909;SDS011;4490;49.072;8.804;2022-07-29T09:17:47;4.38;;;3.90;;
8909;SDS011;4490;49.072;8.804;2022-07-29T09:20:15;7.05;;;3.90;;
8909;SDS011;4490;49.072;8.804;2022-07-29T09:22:45;4.65;;;4.25;;
8909;SDS011;4490;49.072;8.804;2022-07-29T09:25:37;5.53;;;4.30;;
8909;SDS011;4490;49.072;8.804;2022-07-29T09:28:09;6.47;;;4.00;;
8909;SDS011;4490;49.072;8.804;2022-07-29T09:30:35;8.77;;;4.57;;
8909;SDS011;4490;49.072;8.804;2022-07-29T09:33:22;5.38;;;4.10;;
8909;SDS011;4490;49.072;8.804;2022-07-29T09:36:04;5.07;;;3.85;;
8909;SDS011;4490;49.072;8.804;2022-07-29T09:38:34;4.47;;;4.07;;
8909;SDS011;4490;49.072;8.804;2022-07-29T09:41:02;6.40;;;3.88;;
8909;SDS011;4490;49.072;8.804;2022-07-29T09:43:29;5.57;;;3.70;;
8909;SDS011;4490;49.072;8.804;2022-07-29T09:45:55;4.60;;;4.07;;
8909;SDS011;4490;49.072;8.804;2022-07-29T09:48:22;4.78;;;4.18;;
8909;SDS011;4490;49.072;8.804;2022-07-29T09:50:49;9.45;;;4.50;;
8909;SDS011;4490;49.072;8.804;2022-07-29T09:53:37;5.43;;;3.70;;
8909;SDS011;4490;49.072;8.804;2022-07-29T09:56:04;5.63;;;3.97;;
8909;SDS011;4490;49.072;8.804;2022-07-29T09:58:30;4.40;;;3.80;;
8909;SDS011;4490;49.072;8.804;2022-07-29T10:00:59;5.07;;;3.95;;
8909;SDS011;4490;49.072;8.804;2022-07-29T10:03:26;4.82;;;3.70;;
8909;SDS011;4490;49.072;8.804;2022-07-29T10:06:10;6.28;;;3.70;;
8909;SDS011;4490;49.072;8.804;2022-07-29T10:08:38;5.85;;;3.50;;
8909;SDS011;4490;49.072;8.804;2022-07-29T10:11:10;3.67;;;3.38;;
8909;SDS011;4490;49.072;8.804;2022-07-29T10:13:37;3.78;;;3.40;;
8909;SDS011;4490;49.072;8.804;2022-07-29T10:16:04;5.55;;;3.25;;
8909;SDS011;4490;49.072;8.804;2022-07-29T10:18:30;3.45;;;3.10;;
8909;SDS011;4490;49.072;8.804;2022-07-29T10:20:57;4.45;;;3.50;;
8909;SDS011;4490;49.072;8.804;2022-07-29T10:23:23;4.53;;;3.40;;
8909;SDS011;4490;49.072;8.804;2022-07-29T10:25:49;5.57;;;3.40;;
8909;SDS011;4490;49.072;8.804;2022-07-29T10:28:15;4.60;;;3.22;;
8909;SDS011;4490;49.072;8.804;2022-07-29T10:30:40;5.15;;;3.22;;
8909;SDS011;4490;49.072;8.804;2022-07-29T10:36:01;4.07;;;3.45;;
8909;SDS011;4490;49.072;8.804;2022-07-29T10:44:24;6.88;;;3.78;;
8909;SDS011;4490;49.072;8.804;2022-07-29T10:46:52;3.80;;;3.20;;
8909;SDS011;4490;49.072;8.804;2022-07-29T10:49:20;6.07;;;3.20;;
8909;SDS011;4490;49.072;8.804;2022-07-29T10:52:05;4.30;;;3.30;;
8909;SDS011;4490;49.072;8.804;2022-07-29T10:57:19;4.65;;;3.30;;
8909;SDS011;4490;49.072;8.804;2022-07-29T10:59:49;5.13;;;3.08;;
8909;SDS011;4490;49.072;8.804;2022-07-29T11:05:10;3.90;;;3.13;;
8909;SDS011;4490;49.072;8.804;2022-07-29T11:07:38;3.40;;;3.10;;
8909;SDS011;4490;49.072;8.804;2022-07-29T11:20:41;4.85;;;3.40;;
8909;SDS011;4490;49.072;8.804;2022-07-29T11:25:43;3.72;;;3.17;;
8909;SDS011;4490;49.072;8.804;2022-07-29T11:28:16;3.65;;;2.88;;
8909;SDS011;4490;49.072;8.804;2022-07-29T11:30:51;5.05;;;3.38;;
8909;SDS011;4490;49.072;8.804;2022-07-29T11:33:31;4.10;;;3.22;;
8909;SDS011;4490;49.072;8.804;2022-07-29T11:36:07;5.93;;;3.42;;
8909;SDS011;4490;49.072;8.804;2022-07-29T11:38:37;6.55;;;3.55;;
8909;SDS011;4490;49.072;8.804;2022-07-29T11:49:23;3.35;;;2.90;;
8909;SDS011;4490;49.072;8.804;2022-07-29T11:51:54;5.82;;;3.45;;
8909;SDS011;4490;49.072;8.804;2022-07-29T11:54:25;4.10;;;3.50;;
8909;SDS011;4490;49.072;8.804;2022-07-29T11:56:55;3.97;;;3.45;;
8909;SDS011;4490;49.072;8.804;2022-07-29T11:59:22;4.03;;;3.42;;
8909;SDS011;4490;49.072;8.804;2022-07-29T12:01:56;3.67;;;3.38;;
8909;SDS011;4490;49.072;8.804;2022-07-29T12:04:23;6.25;;;3.58;;
8909;SDS011;4490;49.072;8.804;2022-07-29T12:06:50;3.70;;;3.30;;
8909;SDS011;4490;49.072;8.804;2022-07-29T12:09:16;8.60;;;3.80;;
8909;SDS011;4490;49.072;8.804;2022-07-29T12:11:43;6.65;;;3.28;;
8909;SDS011;4490;49.072;8.804;2022-07-29T12:14:08;4.28;;;3.47;;
8909;SDS011;4490;49.072;8.804;2022-07-29T12:16:37;4.43;;;3.47;;
8909;SDS011;4490;49.072;8.804;2022-07-29T12:19:03;3.88;;;3.20;;
8909;SDS011;4490;49.072;8.804;2022-07-29T12:21:42;3.83;;;3.13;;
8909;SDS011;4490;49.072;8.804;2022-07-29T12:24:11;4.72;;;3.35;;
8909;SDS011;4490;49.072;8.804;2022-07-29T12:26:48;3.88;;;2.80;;
8909;SDS011;4490;49.072;8.804;2022-07-29T12:29:17;3.40;;;3.10;;
8909;SDS011;4490;49.072;8.804;2022-07-29T12:31:43;5.68;;;3.85;;
8909;SDS011;4490;49.072;8.804;2022-07-29T12:34:13;4.28;;;3.60;;
8909;SDS011;4490;49.072;8.804;2022-07-29T12:36:41;7.18;;;3.90;;
8909;SDS011;4490;49.072;8.804;2022-07-29T12:39:08;6.57;;;3.60;;
8909;SDS011;4490;49.072;8.804;2022-07-29T12:41:34;9.20;;;3.53;;
8909;SDS011;4490;49.072;8.804;2022-07-29T12:44:00;4.90;;;3.50;;
8909;SDS011;4490;49.072;8.804;2022-07-29T12:46:26;4.38;;;3.17;;
8909;SDS011;4490;49.072;8.804;2022-07-29T12:48:52;3.65;;;3.25;;
8909;SDS011;4490;49.072;8.804;2022-07-29T12:51:29;7.97;;;3.80;;
8909;SDS011;4490;49.072;8.804;2022-07-29T12:54:09;9.07;;;4.18;;
8909;SDS011;4490;49.072;8.804;2022-07-29T12:56:35;6.80;;;3.80;;
8909;SDS011;4490;49.072;8.804;2022-07-29T12:59:15;7.15;;;4.00;;
8909;SDS011;4490;49.072;8.804;2022-07-29T13:01:45;6.03;;;3.92;;
8909;SDS011;4490;49.072;8.804;2022-07-29T13:07:11;3.42;;;3.13;;
8909;SDS011;4490;49.072;8.804;2022-07-29T13:09:40;3.70;;;3.40;;
8909;SDS011;4490;49.072;8.804;2022-07-29T13:12:09;5.60;;;3.65;;
8909;SDS011;4490;49.072;8.804;2022-07-29T13:14:38;6.10;;;3.60;;
8909;SDS011;4490;49.072;8.804;2022-07-29T13:17:09;4.72;;;3.58;;
8909;SDS011;4490;49.072;8.804;2022-07-29T13:19:45;4.57;;;3.90;;
8909;SDS011;4490;49.072;8.804;2022-07-29T13:22:13;6.38;;;4.13;;
8909;SDS011;4490;49.072;8.804;2022-07-29T13:24:50;7.07;;;3.88;;
8909;SDS011;4490;49.072;8.804;2022-07-29T13:27:16;6.07;;;3.67;;
8909;SDS011;4490;49.072;8.804;2022-07-29T13:29:43;4.13;;;3.70;;
8909;SDS011;4490;49.072;8.804;2022-07-29T13:32:09;4.53;;;3.53;;
8909;SDS011;4490;49.072;8.804;2022-07-29T13:34:35;5.55;;;3.30;;
8909;SDS011;4490;49.072;8.804;2022-07-29T13:37:01;3.90;;;3.58;;
8909;SDS011;4490;49.072;8.804;2022-07-29T13:39:27;3.70;;;3.30;;
8909;SDS011;4490;49.072;8.804;2022-07-29T13:41:52;4.90;;;4.00;;
8909;SDS011;4490;49.072;8.804;2022-07-29T13:44:18;5.32;;;3.67;;
8909;SDS011;4490;49.072;8.804;2022-07-29T13:46:43;4.88;;;3.70;;
8909;SDS011;4490;49.072;8.804;2022-07-29T13:49:09;4.70;;;3.28;;
8909;SDS011;4490;49.072;8.804;2022-07-29T13:51:36;3.50;;;3.20;;
8909;SDS011;4490;49.072;8.804;2022-07-29T13:54:02;4.45;;;3.33;;
8909;SDS011;4490;49.072;8.804;2022-07-29T13:56:28;5.97;;;3.08;;
8909;SDS011;4490;49.072;8.804;2022-07-29T13:58:53;3.85;;;2.95;;
8909;SDS011;4490;49.072;8.804;2022-07-29T14:01:19;3.78;;;3.00;;
8909;SDS011;4490;49.072;8.804;2022-07-29T14:03:45;3.15;;;2.95;;
8909;SDS011;4490;49.072;8.804;2022-07-29T14:06:10;3.38;;;3.08;;
8909;SDS011;4490;49.072;8.804;2022-07-29T14:08:37;3.25;;;2.60;;
8909;SDS011;4490;49.072;8.804;2022-07-29T14:11:03;3.55;;;2.30;;
8909;SDS011;4490;49.072;8.804;2022-07-29T14:13:28;4.30;;;2.65;;
8909;SDS011;4490;49.072;8.804;2022-07-29T14:15:54;2.70;;;2.50;;
8909;SDS011;4490;49.072;8.804;2022-07-29T14:18:20;3.72;;;2.03;;
8909;SDS011;4490;49.072;8.804;2022-07-29T14:20:45;3.80;;;2.40;;
8909;SDS011;4490;49.072;8.804;2022-07-29T14:23:11;3.25;;;2.42;;
8909;SDS011;4490;49.072;8.804;2022-07-29T14:25:37;2.97;;;2.65;;
8909;SDS011;4490;49.072;8.804;2022-07-29T14:28:02;3.88;;;2.45;;
8909;SDS011;4490;49.072;8.804;2022-07-29T14:30:28;5.43;;;2.38;;
8909;SDS011;4490;49.072;8.804;2022-07-29T14:32:54;5.05;;;2.45;;
8909;SDS011;4490;49.072;8.804;2022-07-29T14:35:19;5.18;;;2.40;;
8909;SDS011;4490;49.072;8.804;2022-07-29T14:37:45;3.05;;;2.03;;
8909;SDS011;4490;49.072;8.804;2022-07-29T14:40:11;4.65;;;2.00;;
8909;SDS011;4490;49.072;8.804;2022-07-29T14:42:36;3.83;;;2.13;;
8909;SDS011;4490;49.072;8.804;2022-07-29T14:45:06;2.85;;;2.42;;
8909;SDS011;4490;49.072;8.804;2022-07-29T14:47:33;3.72;;;2.30;;
8909;SDS011;4490;49.072;8.804;2022-07-29T14:49:59;2.70;;;2.20;;
8909;SDS011;4490;49.072;8.804;2022-07-29T14:52:24;2.13;;;1.90;;
8909;SDS011;4490;49.072;8.804;2022-07-29T14:54:50;3.22;;;2.42;;
8909;SDS011;4490;49.072;8.804;2022-07-29T14:57:16;3.92;;;2.38;;
8909;SDS011;4490;49.072;8.804;2022-07-29T14:59:41;5.80;;;2.47;;
8909;SDS011;4490;49.072;8.804;2022-07-29T15:02:07;2.88;;;2.10;;
8909;SDS011;4490;49.072;8.804;2022-07-29T15:04:33;4.65;;;1.80;;
8909;SDS011;4490;49.072;8.804;2022-07-29T15:06:59;5.53;;;2.08;;
8909;SDS011;4490;49.072;8.804;2022-07-29T15:09:25;4.88;;;2.13;;
8909;SDS011;4490;49.072;8.804;2022-07-29T15:11:50;3.10;;;2.00;;
8909;SDS011;4490;49.072;8.804;2022-07-29T15:14:16;5.53;;;2.17;;
8909;SDS011;4490;49.072;8.804;2022-07-29T15:16:42;2.30;;;2.10;;
8909;SDS011;4490;49.072;8.804;2022-07-29T15:19:08;5.20;;;2.40;;
8909;SDS011;4490;49.072;8.804;2022-07-29T15:21:34;2.30;;;1.95;;
8909;SDS011;4490;49.072;8.804;2022-07-29T15:24:00;3.25;;;1.77;;
8909;SDS011;4490;49.072;8.804;2022-07-29T15:26:25;2.05;;;1.83;;
8909;SDS011;4490;49.072;8.804;2022-07-29T15:28:51;3.00;;;2.00;;
8909;SDS011;4490;49.072;8.804;2022-07-29T15:31:16;2.88;;;1.95;;
8909;SDS011;4490;49.072;8.804;2022-07-29T15:33:43;2.85;;;2.30;;
8909;SDS011;4490;49.072;8.804;2022-07-29T15:36:09;2.20;;;2.00;;
8909;SDS011;4490;49.072;8.804;2022-07-29T15:38:37;3.45;;;1.83;;
8909;SDS011;4490;49.072;8.804;2022-07-29T15:41:05;5.72;;;2.10;;
8909;SDS011;4490;49.072;8.804;2022-07-29T15:43:35;2.95;;;2.10;;
8909;SDS011;4490;49.072;8.804;2022-07-29T15:46:01;2.15;;;1.90;;
8909;SDS011;4490;49.072;8.804;2022-07-29T15:48:45;4.72;;;2.13;;
8909;SDS011;4490;49.072;8.804;2022-07-29T15:51:10;3.03;;;1.92;;
8909;SDS011;4490;49.072;8.804;2022-07-29T15:53:36;2.53;;;1.90;;
8909;SDS011;4490;49.072;8.804;2022-07-29T15:56:03;7.68;;;2.20;;
8909;SDS011;4490;49.072;8.804;2022-07-29T15:58:30;3.13;;;2.05;;
8909;SDS011;4490;49.072;8.804;2022-07-29T16:00:55;3.70;;;1.88;;
8909;SDS011;4490;49.072;8.804;2022-07-29T16:03:21;4.32;;;2.05;;
8909;SDS011;4490;49.072;8.804;2022-07-29T16:05:47;3.20;;;2.00;;
8909;SDS011;4490;49.072;8.804;2022-07-29T16:08:13;4.28;;;2.10;;
8909;SDS011;4490;49.072;8.804;2022-07-29T16:10:41;3.80;;;1.88;;
8909;SDS011;4490;49.072;8.804;2022-07-29T16:13:06;2.83;;;1.77;;
8909;SDS011;4490;49.072;8.804;2022-07-29T16:15:32;2.60;;;2.08;;
8909;SDS011;4490;49.072;8.804;2022-07-29T16:17:58;4.50;;;1.67;;
8909;SDS011;4490;49.072;8.804;2022-07-29T16:20:23;3.00;;;2.10;;
8909;SDS011;4490;49.072;8.804;2022-07-29T16:22:49;3.78;;;2.00;;